sensor_id;sensor_type;location;lat;lon;timestamp;P1;durP1;ratioP1;P2;durP2;ratioP2
52184;SDS011;38160;52.876;18.778;2023-02-26T00:00:43;12.80;;;6.80;;
52184;SDS011;38160;52.876;18.778;2023-02-26T00:03:39;12.70;;;6.50;;
52184;SDS011;38160;52.876;18.778;2023-02-26T00:06:17;14.60;;;7.20;;
52184;SDS011;38160;52.876;18.778;2023-02-26T00:08:56;15.40;;;7.40;;
52184;SDS011;38160;52.876;18.778;2023-02-26T00:11:32;14.40;;;7.70;;
52184;SDS011;38160;52.876;18.778;2023-02-26T00:14:09;14.80;;;6.90;;
52184;SDS011;38160;52.876;18.778;2023-02-26T00:16:49;12.20;;;6.90;;
52184;SDS011;38160;52.876;18.778;2023-02-26T00:19:32;14.00;;;6.60;;
52184;SDS011;38160;52.876;18.778;2023-02-26T00:22:09;11.20;;;6.00;;
52184;SDS011;38160;52.876;18.778;2023-02-26T00:24:46;13.20;;;6.80;;
52184;SDS011;38160;52.876;18.778;2023-02-26T00:27:22;11.70;;;6.60;;
52184;SDS011;38160;52.876;18.778;2023-02-26T00:29:59;9.30;;;6.70;;
52184;SDS011;38160;52.876;18.778;2023-02-26T00:32:36;10.00;;;6.40;;
52184;SDS011;38160;52.876;18.778;2023-02-26T00:35:15;12.80;;;7.60;;
52184;SDS011;38160;52.876;18.778;2023-02-26T00:37:59;11.10;;;6.20;;
52184;SDS011;38160;52.876;18.778;2023-02-26T00:40:39;12.30;;;6.10;;
52184;SDS011;38160;52.876;18.778;2023-02-26T00:43:18;13.60;;;6.70;;
52184;SDS011;38160;52.876;18.778;2023-02-26T00:45:58;11.50;;;6.30;;
52184;SDS011;38160;52.876;18.778;2023-02-26T00:48:46;12.90;;;7.30;;
52184;SDS011;38160;52.876;18.778;2023-02-26T00:51:31;12.70;;;6.30;;
52184;SDS011;38160;52.876;18.778;2023-02-26T00:54:17;12.10;;;6.70;;
52184;SDS011;38160;52.876;18.778;2023-02-26T00:56:57;11.50;;;6.70;;
52184;SDS011;38160;52.876;18.778;2023-02-26T00:59:36;12.50;;;7.30;;
52184;SDS011;38160;52.876;18.778;2023-02-26T01:02:13;12.90;;;6.30;;
52184;SDS011;38160;52.876;18.778;2023-02-26T01:04:50;11.10;;;6.60;;
52184;SDS011;38160;52.876;18.778;2023-02-26T01:07:29;13.90;;;6.30;;
52184;SDS011;38160;52.876;18.778;2023-02-26T01:10:30;10.30;;;6.20;;
52184;SDS011;38160;52.876;18.778;2023-02-26T01:13:08;11.10;;;6.30;;
52184;SDS011;38160;52.876;18.778;2023-02-26T01:15:49;9.40;;;5.80;;
52184;SDS011;38160;52.876;18.778;2023-02-26T01:18:32;11.40;;;6.20;;
52184;SDS011;38160;52.876;18.778;2023-02-26T01:21:17;9.60;;;5.70;;
52184;SDS011;38160;52.876;18.778;2023-02-26T01:24:02;11.10;;;5.20;;
52184;SDS011;38160;52.876;18.778;2023-02-26T01:26:44;10.20;;;5.50;;
52184;SDS011;38160;52.876;18.778;2023-02-26T01:29:39;9.10;;;5.30;;
52184;SDS011;38160;52.876;18.778;2023-02-26T01:32:17;10.80;;;5.60;;
52184;SDS011;38160;52.876;18.778;2023-02-26T01:34:59;10.90;;;5.80;;
52184;SDS011;38160;52.876;18.778;2023-02-26T01:37:46;9.40;;;5.70;;
52184;SDS011;38160;52.876;18.778;2023-02-26T01:40:35;8.10;;;5.30;;
52184;SDS011;38160;52.876;18.778;2023-02-26T01:43:38;9.90;;;5.50;;
52184;SDS011;38160;52.876;18.778;2023-02-26T01:46:25;10.40;;;6.10;;
52184;SDS011;38160;52.876;18.778;2023-02-26T01:49:13;10.80;;;5.60;;
52184;SDS011;38160;52.876;18.778;2023-02-26T01:51:53;9.60;;;5.90;;
52184;SDS011;38160;52.876;18.778;2023-02-26T01:54:34;8.70;;;5.60;;
52184;SDS011;38160;52.876;18.778;2023-02-26T01:57:13;9.70;;;5.30;;
52184;SDS011;38160;52.876;18.778;2023-02-26T01:59:53;11.50;;;5.30;;
52184;SDS011;38160;52.876;18.778;2023-02-26T02:02:30;13.20;;;5.30;;
52184;SDS011;38160;52.876;18.778;2023-02-26T02:05:08;8.30;;;5.00;;
52184;SDS011;38160;52.876;18.778;2023-02-26T02:07:57;10.90;;;6.40;;
52184;SDS011;38160;52.876;18.778;2023-02-26T02:10:56;9.70;;;5.20;;
52184;SDS011;38160;52.876;18.778;2023-02-26T02:13:36;7.90;;;5.20;;
52184;SDS011;38160;52.876;18.778;2023-02-26T02:16:23;8.00;;;5.10;;
52184;SDS011;38160;52.876;18.778;2023-02-26T02:28:58;6.90;;;4.40;;
52184;SDS011;38160;52.876;18.778;2023-02-26T02:31:56;10.00;;;4.80;;
52184;SDS011;38160;52.876;18.778;2023-02-26T02:34:38;8.30;;;5.10;;
52184;SDS011;38160;52.876;18.778;2023-02-26T02:37:20;9.10;;;4.60;;
52184;SDS011;38160;52.876;18.778;2023-02-26T02:40:03;8.20;;;5.00;;
52184;SDS011;38160;52.876;18.778;2023-02-26T02:42:45;8.50;;;5.00;;
52184;SDS011;38160;52.876;18.778;2023-02-26T02:45:26;9.20;;;5.50;;
52184;SDS011;38160;52.876;18.778;2023-02-26T02:48:09;10.80;;;5.10;;
52184;SDS011;38160;52.876;18.778;2023-02-26T02:50:50;8.30;;;5.10;;
52184;SDS011;38160;52.876;18.778;2023-02-26T02:53:34;9.00;;;5.10;;
52184;SDS011;38160;52.876;18.778;2023-02-26T02:56:16;9.90;;;5.40;;
52184;SDS011;38160;52.876;18.778;2023-02-26T02:58:58;11.40;;;5.10;;
52184;SDS011;38160;52.876;18.778;2023-02-26T03:01:42;8.30;;;5.10;;
52184;SDS011;38160;52.876;18.778;2023-02-26T03:04:21;8.90;;;5.00;;
52184;SDS011;38160;52.876;18.778;2023-02-26T03:06:58;11.20;;;5.40;;
52184;SDS011;38160;52.876;18.778;2023-02-26T03:09:36;9.10;;;5.10;;
52184;SDS011;38160;52.876;18.778;2023-02-26T03:12:23;7.50;;;5.10;;
52184;SDS011;38160;52.876;18.778;2023-02-26T03:15:09;9.70;;;5.20;;
52184;SDS011;38160;52.876;18.778;2023-02-26T03:17:50;9.90;;;5.10;;
52184;SDS011;38160;52.876;18.778;2023-02-26T03:20:37;10.80;;;5.80;;
52184;SDS011;38160;52.876;18.778;2023-02-26T03:23:33;7.70;;;5.00;;
52184;SDS011;38160;52.876;18.778;2023-02-26T03:26:23;8.80;;;5.30;;
52184;SDS011;38160;52.876;18.778;2023-02-26T03:29:05;9.70;;;5.60;;
52184;SDS011;38160;52.876;18.778;2023-02-26T03:31:51;8.80;;;5.10;;
52184;SDS011;38160;52.876;18.778;2023-02-26T03:34:34;8.80;;;5.10;;
52184;SDS011;38160;52.876;18.778;2023-02-26T03:37:20;8.30;;;4.60;;
52184;SDS011;38160;52.876;18.778;2023-02-26T03:40:06;8.50;;;5.10;;
52184;SDS011;38160;52.876;18.778;2023-02-26T03:42:52;8.00;;;4.80;;
52184;SDS011;38160;52.876;18.778;2023-02-26T03:45:34;7.40;;;5.00;;
52184;SDS011;38160;52.876;18.778;2023-02-26T03:48:41;9.60;;;5.00;;
52184;SDS011;38160;52.876;18.778;2023-02-26T03:51:25;8.80;;;5.10;;
52184;SDS011;38160;52.876;18.778;2023-02-26T03:54:16;7.50;;;5.20;;
52184;SDS011;38160;52.876;18.778;2023-02-26T03:57:01;8.30;;;4.60;;
52184;SDS011;38160;52.876;18.778;2023-02-26T04:00:01;8.10;;;4.50;;
52184;SDS011;38160;52.876;18.778;2023-02-26T04:02:50;9.20;;;4.60;;
52184;SDS011;38160;52.876;18.778;2023-02-26T04:05:34;7.10;;;4.60;;
52184;SDS011;38160;52.876;18.778;2023-02-26T04:08:13;6.70;;;4.50;;
52184;SDS011;38160;52.876;18.778;2023-02-26T04:10:51;9.10;;;5.00;;
52184;SDS011;38160;52.876;18.778;2023-02-26T04:13:32;7.10;;;5.00;;
52184;SDS011;38160;52.876;18.778;2023-02-26T04:16:08;10.00;;;5.00;;
52184;SDS011;38160;52.876;18.778;2023-02-26T04:18:44;9.50;;;5.30;;
52184;SDS011;38160;52.876;18.778;2023-02-26T04:21:22;8.60;;;5.30;;
52184;SDS011;38160;52.876;18.778;2023-02-26T04:23:58;9.30;;;5.00;;
52184;SDS011;38160;52.876;18.778;2023-02-26T04:26:34;9.50;;;5.00;;
52184;SDS011;38160;52.876;18.778;2023-02-26T04:29:10;8.30;;;5.10;;
52184;SDS011;38160;52.876;18.778;2023-02-26T04:31:46;8.20;;;4.60;;
52184;SDS011;38160;52.876;18.778;2023-02-26T04:34:22;8.50;;;4.90;;
52184;SDS011;38160;52.876;18.778;2023-02-26T04:36:59;10.30;;;4.70;;
52184;SDS011;38160;52.876;18.778;2023-02-26T04:39:35;7.70;;;4.90;;
52184;SDS011;38160;52.876;18.778;2023-02-26T04:42:12;7.50;;;5.20;;
52184;SDS011;38160;52.876;18.778;2023-02-26T04:44:48;8.50;;;5.20;;
52184;SDS011;38160;52.876;18.778;2023-02-26T04:47:24;8.50;;;5.00;;
52184;SDS011;38160;52.876;18.778;2023-02-26T04:50:00;7.80;;;5.90;;
52184;SDS011;38160;52.876;18.778;2023-02-26T04:52:38;8.60;;;5.40;;
52184;SDS011;38160;52.876;18.778;2023-02-26T04:55:14;7.30;;;5.10;;
52184;SDS011;38160;52.876;18.778;2023-02-26T04:57:50;8.50;;;4.80;;
52184;SDS011;38160;52.876;18.778;2023-02-26T05:00:30;8.60;;;5.00;;
52184;SDS011;38160;52.876;18.778;2023-02-26T05:03:06;7.60;;;4.90;;
52184;SDS011;38160;52.876;18.778;2023-02-26T05:05:43;7.20;;;4.70;;
52184;SDS011;38160;52.876;18.778;2023-02-26T05:08:19;9.90;;;5.60;;
52184;SDS011;38160;52.876;18.778;2023-02-26T05:10:57;9.60;;;5.10;;
52184;SDS011;38160;52.876;18.778;2023-02-26T05:13:33;8.20;;;4.90;;
52184;SDS011;38160;52.876;18.778;2023-02-26T05:16:11;9.00;;;5.30;;
52184;SDS011;38160;52.876;18.778;2023-02-26T05:18:47;8.40;;;4.70;;
52184;SDS011;38160;52.876;18.778;2023-02-26T05:21:23;8.60;;;5.20;;
52184;SDS011;38160;52.876;18.778;2023-02-26T05:24:00;10.80;;;5.20;;
52184;SDS011;38160;52.876;18.778;2023-02-26T05:26:37;8.80;;;5.10;;
52184;SDS011;38160;52.876;18.778;2023-02-26T05:29:13;7.20;;;5.10;;
52184;SDS011;38160;52.876;18.778;2023-02-26T05:31:50;9.70;;;5.30;;
52184;SDS011;38160;52.876;18.778;2023-02-26T05:34:26;7.90;;;4.60;;
52184;SDS011;38160;52.876;18.778;2023-02-26T05:37:02;7.60;;;4.60;;
52184;SDS011;38160;52.876;18.778;2023-02-26T05:39:38;7.20;;;4.20;;
52184;SDS011;38160;52.876;18.778;2023-02-26T05:42:14;9.10;;;4.70;;
52184;SDS011;38160;52.876;18.778;2023-02-26T05:44:51;9.00;;;4.60;;
52184;SDS011;38160;52.876;18.778;2023-02-26T05:47:27;10.60;;;5.20;;
52184;SDS011;38160;52.876;18.778;2023-02-26T05:50:03;8.40;;;4.90;;
52184;SDS011;38160;52.876;18.778;2023-02-26T05:52:40;9.10;;;5.10;;
52184;SDS011;38160;52.876;18.778;2023-02-26T05:55:16;22.00;;;12.50;;
52184;SDS011;38160;52.876;18.778;2023-02-26T05:57:53;14.10;;;5.80;;
52184;SDS011;38160;52.876;18.778;2023-02-26T06:00:29;8.40;;;5.80;;
52184;SDS011;38160;52.876;18.778;2023-02-26T06:03:05;14.00;;;10.10;;
52184;SDS011;38160;52.876;18.778;2023-02-26T06:05:41;9.10;;;6.40;;
52184;SDS011;38160;52.876;18.778;2023-02-26T06:08:17;9.20;;;5.10;;
52184;SDS011;38160;52.876;18.778;2023-02-26T06:10:53;9.30;;;6.10;;
52184;SDS011;38160;52.876;18.778;2023-02-26T06:13:29;9.80;;;6.20;;
52184;SDS011;38160;52.876;18.778;2023-02-26T06:16:05;16.60;;;8.10;;
52184;SDS011;38160;52.876;18.778;2023-02-26T06:18:42;13.30;;;7.00;;
52184;SDS011;38160;52.876;18.778;2023-02-26T06:21:18;24.30;;;12.20;;
52184;SDS011;38160;52.876;18.778;2023-02-26T06:23:54;15.90;;;8.80;;
52184;SDS011;38160;52.876;18.778;2023-02-26T06:26:30;15.20;;;9.00;;
52184;SDS011;38160;52.876;18.778;2023-02-26T06:29:06;29.70;;;21.50;;
52184;SDS011;38160;52.876;18.778;2023-02-26T06:31:42;28.60;;;19.30;;
52184;SDS011;38160;52.876;18.778;2023-02-26T06:34:18;32.40;;;9.70;;
52184;SDS011;38160;52.876;18.778;2023-02-26T06:36:54;10.40;;;5.80;;
52184;SDS011;38160;52.876;18.778;2023-02-26T06:39:31;10.90;;;5.80;;
52184;SDS011;38160;52.876;18.778;2023-02-26T06:42:07;8.90;;;5.20;;
52184;SDS011;38160;52.876;18.778;2023-02-26T06:44:43;8.90;;;5.50;;
52184;SDS011;38160;52.876;18.778;2023-02-26T06:47:19;10.10;;;6.30;;
52184;SDS011;38160;52.876;18.778;2023-02-26T06:49:55;21.40;;;8.70;;
52184;SDS011;38160;52.876;18.778;2023-02-26T06:52:31;12.30;;;7.00;;
52184;SDS011;38160;52.876;18.778;2023-02-26T06:55:08;11.00;;;6.90;;
52184;SDS011;38160;52.876;18.778;2023-02-26T06:57:45;11.20;;;6.00;;
52184;SDS011;38160;52.876;18.778;2023-02-26T07:00:21;7.10;;;4.90;;
52184;SDS011;38160;52.876;18.778;2023-02-26T07:02:58;10.50;;;5.50;;
52184;SDS011;38160;52.876;18.778;2023-02-26T07:05:35;8.10;;;5.60;;
52184;SDS011;38160;52.876;18.778;2023-02-26T07:08:11;11.20;;;6.50;;
52184;SDS011;38160;52.876;18.778;2023-02-26T07:10:48;9.20;;;5.50;;
52184;SDS011;38160;52.876;18.778;2023-02-26T07:13:24;11.00;;;5.80;;
52184;SDS011;38160;52.876;18.778;2023-02-26T07:16:09;11.50;;;6.10;;
52184;SDS011;38160;52.876;18.778;2023-02-26T07:19:28;8.40;;;5.40;;
52184;SDS011;38160;52.876;18.778;2023-02-26T07:22:34;10.00;;;6.20;;
52184;SDS011;38160;52.876;18.778;2023-02-26T07:25:11;9.60;;;6.50;;
52184;SDS011;38160;52.876;18.778;2023-02-26T07:27:49;9.60;;;5.70;;
52184;SDS011;38160;52.876;18.778;2023-02-26T07:30:27;8.30;;;5.60;;
52184;SDS011;38160;52.876;18.778;2023-02-26T07:33:08;11.70;;;5.90;;
52184;SDS011;38160;52.876;18.778;2023-02-26T07:36:44;8.50;;;5.50;;
52184;SDS011;38160;52.876;18.778;2023-02-26T07:40:36;9.70;;;5.20;;
52184;SDS011;38160;52.876;18.778;2023-02-26T07:43:12;9.10;;;5.30;;
52184;SDS011;38160;52.876;18.778;2023-02-26T07:45:51;9.90;;;4.80;;
52184;SDS011;38160;52.876;18.778;2023-02-26T07:48:28;11.80;;;5.80;;
52184;SDS011;38160;52.876;18.778;2023-02-26T07:51:05;13.00;;;6.10;;
52184;SDS011;38160;52.876;18.778;2023-02-26T07:53:42;11.20;;;5.80;;
52184;SDS011;38160;52.876;18.778;2023-02-26T07:56:18;10.00;;;5.70;;
52184;SDS011;38160;52.876;18.778;2023-02-26T07:58:55;10.10;;;6.20;;
52184;SDS011;38160;52.876;18.778;2023-02-26T08:01:31;9.50;;;5.20;;
52184;SDS011;38160;52.876;18.778;2023-02-26T08:04:07;8.50;;;5.50;;
52184;SDS011;38160;52.876;18.778;2023-02-26T08:06:43;25.70;;;12.30;;
52184;SDS011;38160;52.876;18.778;2023-02-26T08:09:19;48.10;;;20.50;;
52184;SDS011;38160;52.876;18.778;2023-02-26T08:11:55;13.00;;;7.30;;
52184;SDS011;38160;52.876;18.778;2023-02-26T08:14:32;9.30;;;5.60;;
52184;SDS011;38160;52.876;18.778;2023-02-26T08:17:08;11.60;;;7.20;;
52184;SDS011;38160;52.876;18.778;2023-02-26T08:19:44;9.50;;;4.90;;
52184;SDS011;38160;52.876;18.778;2023-02-26T08:22:20;8.40;;;6.20;;
52184;SDS011;38160;52.876;18.778;2023-02-26T08:24:57;11.00;;;5.60;;
52184;SDS011;38160;52.876;18.778;2023-02-26T08:27:33;8.80;;;5.30;;
52184;SDS011;38160;52.876;18.778;2023-02-26T08:30:11;11.30;;;6.20;;
52184;SDS011;38160;52.876;18.778;2023-02-26T08:32:48;20.60;;;6.40;;
52184;SDS011;38160;52.876;18.778;2023-02-26T08:35:24;16.30;;;7.20;;
52184;SDS011;38160;52.876;18.778;2023-02-26T08:38:00;23.60;;;17.50;;
52184;SDS011;38160;52.876;18.778;2023-02-26T08:40:36;22.60;;;15.90;;
52184;SDS011;38160;52.876;18.778;2023-02-26T08:43:12;17.80;;;15.00;;
52184;SDS011;38160;52.876;18.778;2023-02-26T08:45:50;50.20;;;45.70;;
52184;SDS011;38160;52.876;18.778;2023-02-26T08:48:27;40.50;;;28.80;;
52184;SDS011;38160;52.876;18.778;2023-02-26T08:51:03;22.50;;;11.10;;
